Time;durP1;ratioP1;P1;durP2;ratioP2;P2;SDS_P1;SDS_P2;PMS_P1;PMS_P2;Temp;Humidity;BMP_temperature;BMP_pressure;BME280_temperature;BME280_humidity;BME280_pressure;Samples;Min_cycle;Max_cycle;Signal;HPM_P1;HPM_P2
2022/03/26 00:01:08;;;;;;;27.70;17.90;;;9.60;1.00;9.80;101816.00;;;;4985355;28;20542;-73
2022/03/26 00:03:38;;;;;;;25.23;17.77;;;9.50;1.00;9.80;101818.00;;;;4981159;28;20490;-74
2022/03/26 00:06:07;;;;;;;27.40;17.40;;;9.50;1.00;9.70;101829.00;;;;4982522;28;20971;-73
2022/03/26 00:08:36;;;;;;;32.40;18.90;;;9.40;1.00;9.80;101823.00;;;;4981659;28;20460;-74
2022/03/26 00:11:04;;;;;;;24.57;18.20;;;9.40;1.00;9.70;101820.00;;;;4985235;28;20485;-73
2022/03/26 00:13:33;;;;;;;23.73;18.27;;;9.40;1.00;9.80;101817.00;;;;4982116;28;20494;-72
2022/03/26 00:16:02;;;;;;;27.20;18.13;;;9.40;1.00;9.60;101812.00;;;;4981241;28;20493;-75
2022/03/26 00:18:30;;;;;;;26.17;18.20;;;9.30;1.00;9.60;101824.00;;;;4979671;28;20486;-74
2022/03/26 00:21:00;;;;;;;24.83;17.13;;;9.00;1.00;9.50;101808.00;;;;4981491;28;20613;-77
2022/03/26 00:23:28;;;;;;;30.33;18.37;;;9.20;1.00;9.60;101805.00;;;;4989556;28;20558;-76
2022/03/26 00:25:58;;;;;;;29.97;17.93;;;9.20;1.00;9.60;101793.00;;;;4985483;28;20522;-76
2022/03/26 00:28:27;;;;;;;24.60;16.90;;;9.20;1.00;9.60;101817.00;;;;4984617;28;20553;-77
2022/03/26 00:30:56;;;;;;;23.93;17.60;;;9.30;1.00;9.60;101815.00;;;;4985727;28;20470;-77
2022/03/26 00:33:25;;;;;;;25.47;19.07;;;9.30;1.00;9.40;101811.00;;;;4982955;28;20997;-77
2022/03/26 00:35:53;;;;;;;26.17;18.20;;;9.10;1.00;9.30;101813.00;;;;4984893;28;20816;-77
2022/03/26 00:38:23;;;;;;;24.90;18.53;;;9.10;1.00;9.40;101813.00;;;;4987098;28;20505;-77
2022/03/26 00:40:51;;;;;;;23.50;17.00;;;9.00;1.00;9.30;101810.00;;;;4989274;28;20796;-77
2022/03/26 00:43:20;;;;;;;23.60;16.67;;;9.00;1.00;9.30;101812.00;;;;4991787;28;20525;-77
2022/03/26 00:45:48;;;;;;;26.93;18.20;;;8.90;1.00;9.30;101806.00;;;;4988835;28;20463;-76
2022/03/26 00:48:16;;;;;;;23.70;17.20;;;8.90;1.00;9.30;101803.00;;;;4986948;28;20466;-76
2022/03/26 00:50:45;;;;;;;27.73;18.17;;;8.90;1.00;9.30;101808.00;;;;4986783;28;20470;-77
2022/03/26 00:53:13;;;;;;;28.63;19.27;;;8.90;1.00;9.30;101815.00;;;;4989964;28;20453;-76
2022/03/26 00:55:43;;;;;;;26.13;17.70;;;9.00;1.00;9.20;101820.00;;;;4990967;28;20477;-75
2022/03/26 00:58:11;;;;;;;26.53;18.07;;;8.90;1.00;9.30;101818.00;;;;4993235;28;21380;-76
2022/03/26 01:00:42;;;;;;;28.80;18.10;;;8.90;1.00;9.30;101819.00;;;;4989592;28;20842;-75
2022/03/26 01:03:10;;;;;;;25.10;17.70;;;9.00;1.00;9.30;101814.00;;;;4992577;28;20540;-76
2022/03/26 01:05:39;;;;;;;28.50;17.93;;;9.00;1.00;9.30;101822.00;;;;4994261;28;20517;-77
2022/03/26 01:08:08;;;;;;;24.60;17.90;;;9.00;1.00;9.40;101795.00;;;;4994404;28;20470;-76
2022/03/26 01:10:36;;;;;;;28.90;19.20;;;9.00;1.00;9.30;101803.00;;;;4993927;28;20826;-76
2022/03/26 01:13:06;;;;;;;28.53;19.13;;;9.10;1.00;9.30;101819.00;;;;4992567;28;20992;-76
2022/03/26 01:15:34;;;;;;;24.30;17.90;;;9.00;1.00;9.30;101808.00;;;;4991551;28;20485;-76
2022/03/26 01:18:03;;;;;;;26.70;18.13;;;9.00;1.00;9.30;101820.00;;;;4992578;28;20485;-76
2022/03/26 01:20:32;;;;;;;24.33;16.80;;;9.10;1.00;9.30;101801.00;;;;4991385;28;21064;-76
2022/03/26 01:23:00;;;;;;;27.73;18.77;;;9.00;1.00;9.20;101822.00;;;;4993967;28;20894;-76
2022/03/26 01:25:28;;;;;;;26.73;17.57;;;8.90;1.00;9.10;101803.00;;;;4988685;28;20482;-76
2022/03/26 01:27:57;;;;;;;26.83;19.10;;;8.90;1.00;9.20;101804.00;;;;4992134;28;20493;-76
2022/03/26 01:30:26;;;;;;;26.23;18.77;;;8.90;1.00;9.10;101810.00;;;;4991780;28;20458;-75
2022/03/26 01:32:55;;;;;;;28.17;18.73;;;8.80;1.00;9.10;101792.00;;;;4992591;28;21204;-75
2022/03/26 01:35:23;;;;;;;25.00;17.43;;;8.70;1.00;9.10;101804.00;;;;4989741;28;20474;-75
2022/03/26 01:37:52;;;;;;;27.70;18.40;;;8.70;1.00;9.00;101806.00;;;;4988345;28;20478;-76
2022/03/26 01:40:20;;;;;;;26.33;19.00;;;8.70;1.00;9.00;101810.00;;;;4991947;28;20501;-77
2022/03/26 01:42:49;;;;;;;27.53;19.33;;;8.70;1.00;8.90;101797.00;;;;4990855;28;20467;-75
2022/03/26 01:45:17;;;;;;;26.30;18.87;;;8.60;1.00;8.90;101795.00;;;;5009251;28;20470;-76
2022/03/26 01:47:47;;;;;;;24.70;16.93;;;8.50;1.00;8.90;101805.00;;;;4993108;28;20498;-76
2022/03/26 01:50:15;;;;;;;31.77;18.30;;;8.60;1.00;8.90;101791.00;;;;5016412;28;20466;-75
2022/03/26 01:52:43;;;;;;;24.83;17.63;;;8.50;1.00;8.80;101799.00;;;;5007573;28;20482;-77
2022/03/26 01:55:11;;;;;;;23.67;17.73;;;8.50;1.00;8.70;101796.00;;;;5007814;28;20466;-75
2022/03/26 01:57:41;;;;;;;25.03;17.27;;;8.50;1.00;8.70;101797.00;;;;5014917;28;20478;-76
2022/03/26 02:00:11;;;;;;;27.60;18.20;;;8.30;1.00;8.60;101771.00;;;;5018346;28;20461;-76
2022/03/26 02:02:43;;;;;;;24.40;17.63;;;8.30;1.00;8.60;101789.00;;;;4996640;28;20486;-76
2022/03/26 02:05:15;;;;;;;27.93;17.90;;;8.30;1.00;8.70;101789.00;;;;4998389;28;20481;-76
2022/03/26 02:07:46;;;;;;;31.07;17.83;;;8.30;1.00;8.70;101782.00;;;;4995202;28;20470;-76
2022/03/26 02:10:17;;;;;;;23.63;16.77;;;8.40;1.00;8.70;101786.00;;;;4996110;28;20458;-76
2022/03/26 02:12:46;;;;;;;25.43;17.70;;;8.40;1.00;8.80;101761.00;;;;4996658;28;20458;-76
2022/03/26 02:15:16;;;;;;;26.63;18.37;;;8.40;1.00;8.80;101783.00;;;;4993642;28;20484;-76
2022/03/26 02:17:45;;;;;;;27.13;18.73;;;8.50;1.00;8.70;101776.00;;;;4992798;28;20487;-76
2022/03/26 02:20:15;;;;;;;26.80;18.10;;;8.50;1.00;8.80;101753.00;;;;4990015;28;20466;-77
2022/03/26 02:22:43;;;;;;;29.90;18.03;;;8.40;1.00;8.70;101776.00;;;;4991165;28;20467;-77
2022/03/26 02:25:12;;;;;;;26.07;17.97;;;8.40;1.00;8.60;101767.00;;;;4993411;28;20509;-77
2022/03/26 02:27:40;;;;;;;26.10;17.50;;;8.50;1.00;8.60;101768.00;;;;4993630;28;20465;-76
2022/03/26 02:30:10;;;;;;;24.77;17.63;;;8.30;1.00;8.70;101773.00;;;;4990740;28;20528;-76
2022/03/26 02:32:38;;;;;;;24.23;17.53;;;8.30;1.00;8.70;101773.00;;;;4990428;28;20461;-77
2022/03/26 02:35:08;;;;;;;26.70;17.97;;;8.40;1.00;8.70;101779.00;;;;4990396;28;20490;-77
2022/03/26 02:37:37;;;;;;;25.10;17.40;;;8.30;1.00;8.70;101764.00;;;;4994239;28;20458;-76
2022/03/26 02:40:08;;;;;;;27.47;18.90;;;8.30;1.00;8.60;101771.00;;;;4993461;28;20469;-75
2022/03/26 02:42:37;;;;;;;22.23;16.47;;;8.20;1.00;8.50;101772.00;;;;4992122;28;20480;-75
2022/03/26 02:45:07;;;;;;;28.87;18.97;;;8.20;1.00;8.50;101775.00;;;;4987575;28;20482;-76
2022/03/26 02:47:35;;;;;;;26.03;17.33;;;8.10;1.00;8.50;101765.00;;;;4986583;28;20462;-75
2022/03/26 02:50:05;;;;;;;26.13;20.03;;;8.10;1.00;8.50;101773.00;;;;4989408;28;20459;-75
2022/03/26 02:52:33;;;;;;;24.13;17.27;;;8.20;1.00;8.50;101770.00;;;;4997915;28;20542;-76
2022/03/26 02:55:05;;;;;;;26.27;17.00;;;8.20;1.00;8.50;101769.00;;;;4984851;28;21071;-75
2022/03/26 02:57:33;;;;;;;22.70;16.67;;;8.10;1.00;8.40;101771.00;;;;4985677;28;20462;-76
2022/03/26 03:00:01;;;;;;;25.73;17.40;;;8.10;1.00;8.40;101771.00;;;;4987482;28;20474;-76
2022/03/26 03:02:30;;;;;;;28.17;17.47;;;8.00;1.00;8.50;101778.00;;;;4987216;28;20457;-76
2022/03/26 03:04:59;;;;;;;27.13;18.23;;;8.10;1.00;8.40;101771.00;;;;4984679;28;20482;-76
2022/03/26 03:07:27;;;;;;;24.27;18.50;;;8.10;1.00;8.40;101779.00;;;;4988410;28;20924;-76
2022/03/26 03:09:55;;;;;;;28.87;18.53;;;8.00;1.00;8.40;101772.00;;;;4985111;28;20454;-76
2022/03/26 03:12:26;;;;;;;26.10;17.30;;;8.00;1.00;8.30;101781.00;;;;4998592;28;20991;-75
2022/03/26 03:14:54;;;;;;;25.70;17.93;;;8.00;1.00;8.30;101770.00;;;;4995072;28;20556;-74
2022/03/26 03:17:23;;;;;;;24.83;18.33;;;7.90;1.00;8.30;101777.00;;;;5005646;28;20462;-75
2022/03/26 03:19:51;;;;;;;25.47;19.00;;;7.90;1.00;8.30;101767.00;;;;4998761;28;20993;-76
2022/03/26 03:22:19;;;;;;;22.37;17.30;;;7.90;1.00;8.30;101767.00;;;;4995548;28;20460;-75
2022/03/26 03:24:47;;;;;;;27.10;18.23;;;8.00;1.00;8.40;101775.00;;;;4989699;28;20513;-75
2022/03/26 03:27:16;;;;;;;25.93;18.17;;;8.00;1.00;8.30;101775.00;;;;4990989;28;20475;-76
2022/03/26 03:29:45;;;;;;;28.07;17.73;;;8.20;1.00;8.30;101777.00;;;;4989805;28;21066;-76
2022/03/26 03:32:14;;;;;;;28.27;18.30;;;8.00;1.00;8.30;101776.00;;;;4988857;28;20466;-76
2022/03/26 03:34:43;;;;;;;25.33;17.77;;;8.00;1.00;8.30;101788.00;;;;4985358;28;20481;-75
2022/03/26 03:37:12;;;;;;;27.23;18.40;;;8.00;1.00;8.30;101784.00;;;;4991324;28;20454;-76
2022/03/26 03:39:40;;;;;;;27.93;17.83;;;8.00;1.00;8.30;101765.00;;;;4989934;28;20474;-76
2022/03/26 03:42:09;;;;;;;24.30;17.03;;;8.00;1.00;8.20;101796.00;;;;4992269;28;20458;-76
2022/03/26 03:44:37;;;;;;;26.10;17.93;;;7.90;1.00;8.20;101789.00;;;;5006478;28;20549;-76
2022/03/26 03:47:08;;;;;;;25.63;18.07;;;7.90;1.00;8.20;101791.00;;;;5012987;28;20471;-75
2022/03/26 03:49:36;;;;;;;27.43;17.23;;;7.80;1.00;8.10;101790.00;;;;4998372;28;21317;-76
2022/03/26 03:52:06;;;;;;;28.47;18.97;;;7.80;1.00;8.10;101797.00;;;;4988111;28;20469;-76
2022/03/26 03:54:35;;;;;;;28.87;18.67;;;7.80;1.00;8.10;101782.00;;;;4982762;28;20580;-76
2022/03/26 03:57:03;;;;;;;25.50;17.90;;;7.70;1.00;8.10;101782.00;;;;4984831;28;20489;-76
2022/03/26 03:59:32;;;;;;;28.77;18.73;;;7.70;1.00;8.10;101777.00;;;;4985137;28;20485;-76
2022/03/26 04:02:00;;;;;;;27.30;18.27;;;7.70;1.00;8.00;101780.00;;;;4985124;28;20483;-77
2022/03/26 04:04:30;;;;;;;26.33;19.07;;;7.70;1.00;8.10;101772.00;;;;4983320;28;20486;-76
2022/03/26 04:06:58;;;;;;;26.97;17.97;;;7.80;1.00;8.20;101792.00;;;;4987609;28;21051;-77
2022/03/26 04:09:26;;;;;;;29.37;18.80;;;7.80;1.00;8.00;101786.00;;;;4983766;28;20462;-75
2022/03/26 04:11:55;;;;;;;25.50;17.57;;;7.70;1.00;8.00;101781.00;;;;4992502;28;20884;-75
2022/03/26 04:14:23;;;;;;;28.97;19.37;;;7.70;1.00;8.00;101786.00;;;;4986643;28;20479;-76
2022/03/26 04:16:51;;;;;;;26.73;17.33;;;7.70;1.00;8.00;101778.00;;;;4983924;28;20463;-76
2022/03/26 04:19:19;;;;;;;23.30;17.50;;;7.60;1.00;8.00;101780.00;;;;4985883;28;20477;-75
2022/03/26 04:21:49;;;;;;;29.43;17.17;;;7.60;1.00;7.90;101794.00;;;;4982892;28;20449;-74
2022/03/26 04:24:17;;;;;;;28.40;16.60;;;7.60;1.00;7.90;101791.00;;;;4982875;28;20486;-75
2022/03/26 04:26:51;;;;;;;27.80;18.80;;;7.60;1.00;7.80;101777.00;;;;4980676;28;20458;-75
2022/03/26 04:29:21;;;;;;;28.20;18.70;;;7.50;1.00;7.90;101796.00;;;;4987553;28;21589;-76
2022/03/26 04:31:49;;;;;;;29.10;19.13;;;7.50;1.00;7.80;101795.00;;;;4986667;28;20463;-75
2022/03/26 04:34:19;;;;;;;30.20;19.83;;;7.50;1.00;7.80;101786.00;;;;4987132;28;20474;-76
2022/03/26 04:36:48;;;;;;;25.60;18.20;;;7.40;1.00;7.70;101796.00;;;;4994967;28;20466;-75
2022/03/26 04:39:17;;;;;;;26.63;18.37;;;7.40;1.00;7.80;101792.00;;;;4989144;28;20477;-75
2022/03/26 04:41:45;;;;;;;25.67;19.43;;;7.40;1.00;7.70;101797.00;;;;4991114;28;20467;-74
2022/03/26 04:44:13;;;;;;;25.13;19.00;;;7.40;1.00;7.60;101803.00;;;;4987472;28;20478;-76
2022/03/26 04:46:41;;;;;;;26.10;19.47;;;7.30;1.00;7.60;101798.00;;;;4988195;28;20466;-76
2022/03/26 04:49:10;;;;;;;29.07;19.20;;;7.30;1.00;7.50;101791.00;;;;4989874;28;20459;-76
2022/03/26 04:51:38;;;;;;;29.20;20.93;;;7.20;1.00;7.60;101792.00;;;;4984178;28;20840;-76
2022/03/26 04:54:08;;;;;;;30.13;20.10;;;7.20;1.00;7.50;101789.00;;;;4984849;28;20493;-75
2022/03/26 04:56:36;;;;;;;29.53;20.27;;;7.20;1.00;7.50;101787.00;;;;4982304;28;20998;-75
2022/03/26 04:59:06;;;;;;;26.13;19.73;;;7.20;1.00;7.50;101784.00;;;;4981638;28;21033;-75
2022/03/26 05:01:34;;;;;;;27.27;18.70;;;7.20;1.00;7.50;101784.00;;;;4988365;28;20466;-76
2022/03/26 05:04:06;;;;;;;27.00;18.40;;;7.30;1.00;7.50;101803.00;;;;4983719;28;20471;-76
2022/03/26 05:06:34;;;;;;;28.10;19.97;;;7.10;1.00;7.40;101791.00;;;;4987484;28;20994;-76
2022/03/26 05:09:02;;;;;;;28.43;19.00;;;7.10;1.00;7.50;101800.00;;;;4987095;28;20478;-76
2022/03/26 05:11:32;;;;;;;30.23;20.30;;;7.10;1.00;7.50;101798.00;;;;4981551;28;21948;-76
2022/03/26 05:14:00;;;;;;;27.40;19.50;;;7.10;1.00;7.60;101793.00;;;;4987313;28;20512;-76
2022/03/26 05:16:29;;;;;;;29.20;20.47;;;7.20;1.00;7.60;101797.00;;;;4983728;28;20494;-76
2022/03/26 05:18:57;;;;;;;26.47;19.73;;;7.30;1.00;7.60;101783.00;;;;4988296;28;20813;-77
2022/03/26 05:21:26;;;;;;;30.73;21.20;;;7.30;1.00;7.60;101790.00;;;;4985845;28;20469;-76
2022/03/26 05:23:54;;;;;;;30.27;21.50;;;7.40;1.00;7.70;101787.00;;;;4995434;28;20487;-77
2022/03/26 05:26:23;;;;;;;28.07;19.70;;;7.30;1.00;7.60;101791.00;;;;4998246;28;20458;-77
2022/03/26 05:28:53;;;;;;;29.60;20.30;;;7.30;1.00;7.60;101802.00;;;;4988476;28;20450;-77
2022/03/26 05:31:21;;;;;;;32.50;21.07;;;7.20;1.00;7.50;101788.00;;;;4984833;28;20557;-76
2022/03/26 05:33:49;;;;;;;27.63;20.07;;;7.20;1.00;7.50;101804.00;;;;4983133;28;20481;-77
2022/03/26 05:36:17;;;;;;;29.20;21.50;;;7.10;1.00;7.60;101801.00;;;;4985881;28;20462;-76
2022/03/26 05:38:46;;;;;;;29.27;21.30;;;7.20;1.00;7.60;101802.00;;;;4989642;28;20469;-77
2022/03/26 05:41:14;;;;;;;31.10;21.70;;;7.20;1.00;7.70;101810.00;;;;4991725;28;20478;-77
2022/03/26 05:43:42;;;;;;;28.90;20.20;;;7.20;1.00;7.70;101804.00;;;;4986536;28;20477;-76
2022/03/26 05:46:12;;;;;;;34.53;21.40;;;7.30;1.00;7.80;101811.00;;;;4987560;28;20478;-76
2022/03/26 05:48:40;;;;;;;28.80;21.37;;;7.40;1.00;7.90;101823.00;;;;4989131;28;20474;-76
2022/03/26 05:51:09;;;;;;;28.50;20.50;;;7.50;1.00;7.90;101818.00;;;;5011906;28;20465;-76
2022/03/26 05:53:38;;;;;;;27.17;21.63;;;7.50;1.00;8.10;101832.00;;;;4991018;28;20560;-77
2022/03/26 05:56:06;;;;;;;30.00;20.80;;;7.60;1.00;8.10;101812.00;;;;4988201;28;20465;-76
2022/03/26 05:58:35;;;;;;;30.30;23.40;;;7.70;1.00;8.20;101831.00;;;;4995156;28;20484;-77
2022/03/26 06:01:04;;;;;;;30.60;21.27;;;7.70;1.00;8.30;101823.00;;;;5008796;28;20478;-77
2022/03/26 06:03:34;;;;;;;37.30;21.00;;;7.80;1.00;8.20;101819.00;;;;4989332;28;20466;-76
2022/03/26 06:06:02;;;;;;;30.10;21.40;;;7.80;1.00;8.40;101831.00;;;;4986743;28;20474;-76
2022/03/26 06:08:30;;;;;;;34.90;22.23;;;7.90;1.00;8.40;101823.00;;;;4996913;28;20485;-77
2022/03/26 06:10:59;;;;;;;31.30;22.23;;;8.00;1.00;8.60;101831.00;;;;5003062;28;20461;-76
2022/03/26 06:13:27;;;;;;;28.83;21.50;;;8.10;1.00;8.60;101826.00;;;;5001393;28;20460;-76
2022/03/26 06:15:55;;;;;;;33.50;22.10;;;8.20;1.00;8.70;101843.00;;;;4999555;28;20464;-77
2022/03/26 06:18:24;;;;;;;33.23;21.50;;;8.30;1.00;8.80;101835.00;;;;4989326;28;20461;-77
2022/03/26 06:20:53;;;;;;;36.37;20.93;;;8.40;1.00;8.90;101831.00;;;;4992013;28;20820;-77
2022/03/26 06:23:22;;;;;;;31.83;22.03;;;8.50;1.00;9.00;101838.00;;;;4988048;28;20573;-77
2022/03/26 06:25:50;;;;;;;29.30;20.33;;;8.60;1.00;9.20;101839.00;;;;4988061;28;20471;-76
2022/03/26 06:28:19;;;;;;;29.93;21.43;;;8.70;1.00;9.30;101839.00;;;;4990473;28;20450;-76
2022/03/26 06:30:47;;;;;;;31.00;21.30;;;8.90;1.00;9.50;101835.00;;;;4995688;28;20463;-76
2022/03/26 06:33:16;;;;;;;30.27;21.17;;;9.00;1.00;9.50;101852.00;;;;4994839;28;20472;-77
2022/03/26 06:35:45;;;;;;;34.63;23.33;;;9.10;1.00;9.60;101850.00;;;;4997534;28;20467;-77
2022/03/26 06:38:20;;;;;;;30.30;19.50;;;9.40;1.00;9.70;101827.00;;;;5002386;28;20484;-76
2022/03/26 06:40:48;;;;;;;30.60;22.37;;;9.30;1.00;9.70;101853.00;;;;5003574;28;20474;-76
2022/03/26 06:43:17;;;;;;;32.60;22.30;;;9.40;1.00;9.80;101846.00;;;;5013693;28;21181;-76
2022/03/26 06:45:45;;;;;;;30.97;20.43;;;9.40;1.00;9.80;101850.00;;;;5012207;28;20467;-76
2022/03/26 06:48:13;;;;;;;32.63;21.93;;;9.50;1.00;9.90;101844.00;;;;5006256;28;20811;-77
2022/03/26 06:50:42;;;;;;;29.67;20.20;;;9.60;1.00;10.00;101853.00;;;;4996712;28;20455;-77
2022/03/26 06:53:10;;;;;;;34.10;22.53;;;9.70;1.00;10.10;101862.00;;;;4996510;28;20469;-77
2022/03/26 06:55:41;;;;;;;30.43;22.80;;;9.80;1.00;10.20;101851.00;;;;5001759;28;20501;-76
2022/03/26 06:58:09;;;;;;;31.37;22.47;;;9.80;1.00;10.30;101854.00;;;;5002124;28;20469;-78
2022/03/26 07:00:43;;;;;;;35.30;21.77;;;10.00;1.00;10.30;101853.00;;;;5014981;28;20470;-77
2022/03/26 07:03:11;;;;;;;37.40;22.90;;;10.00;1.00;10.30;101860.00;;;;5012135;28;20464;-77
2022/03/26 07:05:40;;;;;;;34.30;21.80;;;10.00;1.00;10.40;101856.00;;;;5007215;28;20510;-76
2022/03/26 07:08:09;;;;;;;32.40;21.70;;;10.30;1.00;10.60;101855.00;;;;5001770;28;20464;-76
2022/03/26 07:10:41;;;;;;;30.67;21.07;;;10.20;1.00;10.60;101856.00;;;;4995312;28;20510;-76
2022/03/26 07:13:09;;;;;;;32.47;23.07;;;10.20;1.00;10.60;101870.00;;;;4991119;28;20462;-76
2022/03/26 07:15:37;;;;;;;36.07;23.03;;;10.40;1.00;10.80;101857.00;;;;4985162;28;20483;-76
2022/03/26 07:18:06;;;;;;;31.13;23.13;;;10.40;1.00;10.90;101871.00;;;;4988935;28;20465;-76
2022/03/26 07:20:34;;;;;;;32.13;23.00;;;10.60;1.00;11.00;101856.00;;;;4986586;28;20484;-76
2022/03/26 07:23:03;;;;;;;30.73;21.40;;;10.80;1.00;11.10;101860.00;;;;4984364;28;20462;-76
2022/03/26 07:25:31;;;;;;;30.80;22.57;;;10.90;1.00;11.20;101870.00;;;;4991135;28;20574;-77
2022/03/26 07:28:01;;;;;;;30.00;20.70;;;10.90;1.00;11.10;101865.00;;;;4988721;28;20461;-78
2022/03/26 07:30:29;;;;;;;31.50;21.40;;;11.20;1.00;11.20;101879.00;;;;4985859;28;20533;-77
2022/03/26 07:32:57;;;;;;;28.50;21.73;;;11.00;1.00;11.20;101896.00;;;;4990093;28;20962;-75
2022/03/26 07:35:26;;;;;;;30.27;22.33;;;11.10;1.00;11.20;101886.00;;;;4991950;28;20489;-76
2022/03/26 07:37:56;;;;;;;31.60;22.83;;;11.00;1.00;11.30;101888.00;;;;4990170;28;20462;-75
2022/03/26 07:40:25;;;;;;;33.57;23.67;;;11.00;1.00;11.30;101892.00;;;;4989689;28;20462;-77
2022/03/26 07:42:53;;;;;;;31.93;22.80;;;11.10;1.00;11.50;101897.00;;;;4987325;28;20451;-75
2022/03/26 07:45:23;;;;;;;32.23;23.40;;;11.20;1.00;11.50;101902.00;;;;4999527;28;20513;-77
2022/03/26 07:47:52;;;;;;;29.20;22.40;;;11.30;1.00;11.50;101894.00;;;;4990572;28;20458;-76
2022/03/26 07:50:24;;;;;;;32.60;22.30;;;11.30;1.00;11.60;101889.00;;;;4991366;28;20509;-77
2022/03/26 07:52:52;;;;;;;31.67;22.77;;;11.40;1.00;11.60;101889.00;;;;4986555;28;20477;-77
2022/03/26 07:55:21;;;;;;;31.47;22.80;;;11.40;1.00;11.70;101913.00;;;;4996422;28;20541;-77
2022/03/26 07:57:49;;;;;;;33.63;22.00;;;11.40;1.00;11.80;101891.00;;;;5001629;28;20459;-77
2022/03/26 08:00:18;;;;;;;39.77;24.07;;;11.50;1.00;11.80;101908.00;;;;4999923;28;20462;-77
2022/03/26 08:02:48;;;;;;;30.57;23.03;;;11.60;1.00;11.90;101907.00;;;;5001889;28;20470;-77
2022/03/26 08:05:16;;;;;;;32.00;23.40;;;11.70;1.00;12.00;101906.00;;;;4997397;28;20486;-77
2022/03/26 08:07:45;;;;;;;33.97;23.07;;;11.70;1.00;12.00;101917.00;;;;4999807;28;20489;-77
2022/03/26 08:10:13;;;;;;;33.40;22.03;;;11.80;1.00;12.00;101912.00;;;;4999226;28;20482;-77
2022/03/26 08:12:41;;;;;;;30.73;23.57;;;11.80;1.00;12.10;101911.00;;;;5007970;28;20469;-77
2022/03/26 08:15:10;;;;;;;30.33;23.07;;;11.90;1.00;12.20;101907.00;;;;5002236;28;20474;-78
2022/03/26 08:17:38;;;;;;;29.93;22.90;;;12.00;1.00;12.30;101900.00;;;;5003260;28;20457;-76
2022/03/26 08:20:10;;;;;;;34.20;23.43;;;12.00;1.00;12.40;101907.00;;;;5004398;28;20469;-77
2022/03/26 08:22:41;;;;;;;35.13;23.00;;;12.10;1.00;12.50;101898.00;;;;5001608;28;20485;-76
2022/03/26 08:25:10;;;;;;;36.87;23.83;;;12.30;1.00;12.60;101903.00;;;;5001191;28;20487;-78
2022/03/26 08:27:39;;;;;;;31.30;22.87;;;12.40;1.00;12.70;101910.00;;;;5001036;28;20540;-77
2022/03/26 08:30:09;;;;;;;30.90;22.70;;;12.50;1.00;12.80;101910.00;;;;5005941;28;20467;-78
2022/03/26 08:32:38;;;;;;;34.60;23.90;;;12.60;1.00;12.80;101919.00;;;;5000020;28;20460;-77
2022/03/26 08:35:10;;;;;;;32.30;24.03;;;12.70;1.00;12.90;101915.00;;;;4995410;28;20520;-76
2022/03/26 08:37:38;;;;;;;33.50;23.77;;;12.80;1.00;13.00;101913.00;;;;5023749;28;20468;-76
2022/03/26 08:40:12;;;;;;;36.53;23.70;;;12.90;1.00;13.10;101917.00;;;;5018088;28;20464;-76
2022/03/26 08:42:40;;;;;;;37.27;26.17;;;13.00;1.00;13.20;101906.00;;;;5016755;28;20624;-79
2022/03/26 08:45:09;;;;;;;35.80;26.30;;;13.10;1.00;13.30;101916.00;;;;5012326;28;20500;-77
2022/03/26 08:47:37;;;;;;;33.43;23.33;;;13.20;1.00;13.30;101914.00;;;;5002187;28;20451;-76
2022/03/26 08:50:09;;;;;;;31.73;23.83;;;13.30;1.00;13.40;101924.00;;;;4999496;28;20553;-75
2022/03/26 08:52:38;;;;;;;32.07;23.17;;;13.30;1.00;13.50;101890.00;;;;4990490;28;20962;-75
2022/03/26 08:55:08;;;;;;;33.57;23.90;;;13.40;1.00;13.50;101913.00;;;;4991251;28;20656;-75
2022/03/26 08:57:36;;;;;;;37.17;24.57;;;13.40;1.00;13.60;101920.00;;;;4989341;28;20466;-75
2022/03/26 09:00:06;;;;;;;35.10;25.27;;;13.50;1.00;13.70;101921.00;;;;4987322;28;20471;-75
2022/03/26 09:02:35;;;;;;;30.27;23.90;;;13.60;1.00;13.80;101914.00;;;;4984608;28;20479;-77
2022/03/26 09:05:06;;;;;;;32.27;24.73;;;13.70;1.00;13.90;101913.00;;;;4990954;28;21114;-76
2022/03/26 09:07:36;;;;;;;34.30;25.77;;;13.90;1.00;14.00;101916.00;;;;4987781;28;20478;-76
2022/03/26 09:10:05;;;;;;;31.10;25.73;;;14.00;1.00;14.00;101910.00;;;;4984148;28;20466;-76
2022/03/26 09:12:34;;;;;;;31.70;24.07;;;14.00;1.00;14.10;101917.00;;;;4997213;28;20557;-75
2022/03/26 09:15:06;;;;;;;31.40;23.90;;;14.00;1.00;14.10;101893.00;;;;5001719;28;20479;-77
2022/03/26 09:17:35;;;;;;;38.33;25.60;;;14.00;1.00;14.10;101908.00;;;;5002155;28;20450;-77
2022/03/26 09:20:05;;;;;;;33.63;25.10;;;14.10;1.00;14.10;101896.00;;;;4991845;28;20486;-78
2022/03/26 09:22:35;;;;;;;36.00;25.43;;;14.00;1.00;14.30;101902.00;;;;4994260;28;20488;-77
2022/03/26 09:25:06;;;;;;;38.83;26.67;;;14.20;1.00;14.30;101912.00;;;;4993845;28;20486;-76
2022/03/26 09:27:34;;;;;;;36.23;26.10;;;14.30;1.00;14.50;101899.00;;;;5002475;28;20480;-77
2022/03/26 09:30:03;;;;;;;30.90;24.73;;;14.40;1.00;14.60;101897.00;;;;5011090;28;20445;-83
2022/03/26 09:32:35;;;;;;;39.00;25.70;;;14.50;1.00;14.60;101908.00;;;;5006129;28;20458;-76
2022/03/26 09:35:05;;;;;;;34.37;25.50;;;14.60;1.00;14.60;101909.00;;;;4997430;28;20478;-76
2022/03/26 09:37:35;;;;;;;33.63;23.40;;;14.60;1.00;14.70;101904.00;;;;5004552;28;20464;-78
2022/03/26 09:40:04;;;;;;;35.77;25.50;;;14.70;1.00;14.80;101914.00;;;;5004272;28;20488;-76
2022/03/26 09:42:34;;;;;;;34.00;24.47;;;14.70;1.00;14.80;101909.00;;;;4987743;28;20510;-75
2022/03/26 09:45:05;;;;;;;33.83;24.53;;;14.80;1.00;15.00;101911.00;;;;4990299;28;20477;-76
2022/03/26 09:47:34;;;;;;;42.00;29.47;;;14.90;1.00;15.10;101910.00;;;;4999244;28;20465;-77
2022/03/26 09:50:05;;;;;;;28.77;23.10;;;15.10;1.00;15.20;101910.00;;;;5005872;28;20525;-77
2022/03/26 09:52:35;;;;;;;33.20;25.33;;;15.20;1.00;15.20;101905.00;;;;4996420;28;20466;-75
2022/03/26 09:55:12;;;;;;;37.97;27.80;;;15.20;1.00;15.30;101899.00;;;;5001430;28;20491;-75
2022/03/26 09:57:41;;;;;;;30.93;23.17;;;15.30;1.00;15.30;101912.00;;;;5001130;28;20474;-77
2022/03/26 10:00:12;;;;;;;35.53;28.03;;;15.30;1.00;15.40;101911.00;;;;5000088;28;20556;-76
2022/03/26 10:02:41;;;;;;;32.50;23.87;;;15.40;1.00;15.50;101920.00;;;;4990979;28;20465;-77
2022/03/26 10:05:12;;;;;;;37.13;26.90;;;15.50;1.00;15.60;101907.00;;;;4989791;28;20482;-76
2022/03/26 10:07:42;;;;;;;32.87;23.87;;;15.60;1.00;15.70;101931.00;;;;4988717;28;20517;-77
2022/03/26 10:10:23;;;;;;;33.60;22.63;;;15.70;1.00;15.70;101909.00;;;;4985066;28;20990;-77
2022/03/26 10:12:53;;;;;;;30.87;24.60;;;15.80;1.00;15.70;101895.00;;;;5006633;28;20447;-78
2022/03/26 10:15:21;;;;;;;30.77;24.30;;;15.70;1.00;15.90;101909.00;;;;5001172;28;21003;-77
2022/03/26 10:17:50;;;;;;;27.60;21.60;;;15.90;1.00;16.00;101911.00;;;;4995065;28;20485;-76
2022/03/26 10:20:18;;;;;;;29.67;23.17;;;16.10;1.00;16.10;101900.00;;;;5005547;28;20472;-76
2022/03/26 10:22:49;;;;;;;34.77;24.57;;;16.20;1.00;16.20;101903.00;;;;4999717;28;20482;-76
2022/03/26 10:25:21;;;;;;;33.60;25.50;;;16.30;1.00;16.40;101901.00;;;;5007877;28;20474;-77
2022/03/26 10:27:52;;;;;;;34.20;23.47;;;16.40;1.00;16.40;101885.00;;;;5014878;28;20438;-78
2022/03/26 10:33:19;;;;;;;28.33;23.37;;;16.60;1.00;16.50;101893.00;;;;5009024;28;20465;-76
2022/03/26 10:35:54;;;;;;;30.97;24.03;;;16.60;1.00;16.50;101899.00;;;;5011071;28;20452;-76
2022/03/26 10:38:30;;;;;;;27.60;22.50;;;16.60;1.00;16.60;101901.00;;;;5005999;28;20458;-76
2022/03/26 10:41:07;;;;;;;25.93;22.23;;;16.70;1.00;16.70;101896.00;;;;5003386;28;20565;-76
2022/03/26 10:43:37;;;;;;;26.60;21.80;;;16.80;1.00;16.80;101887.00;;;;4992413;28;20493;-76
2022/03/26 10:46:05;;;;;;;28.20;22.50;;;16.90;1.00;16.80;101892.00;;;;4994669;28;20466;-75
2022/03/26 10:48:37;;;;;;;25.83;21.07;;;16.90;1.00;16.90;101890.00;;;;4989401;28;20461;-76
2022/03/26 10:51:08;;;;;;;28.00;21.30;;;16.90;1.00;17.00;101886.00;;;;4989779;28;20465;-77
2022/03/26 10:53:40;;;;;;;27.57;21.30;;;16.90;1.00;17.00;101891.00;;;;4995881;28;21187;-76
2022/03/26 10:56:12;;;;;;;30.80;23.87;;;17.00;1.00;17.00;101879.00;;;;4998838;28;20459;-76
2022/03/26 10:58:43;;;;;;;27.30;22.07;;;17.10;1.00;17.10;101874.00;;;;5006424;28;20520;-77
2022/03/26 11:01:13;;;;;;;27.70;21.57;;;17.10;1.00;17.20;101873.00;;;;5003586;28;20974;-80